sensor_id;sensor_type;location;lat;lon;timestamp;P1;durP1;ratioP1;P2;durP2;ratioP2
39452;SDS011;25154;-33.684;151.102;2023-03-23T00:01:46;8.55;;;1.60;;
39452;SDS011;25154;-33.684;151.102;2023-03-23T00:06:53;7.30;;;2.78;;
39452;SDS011;25154;-33.684;151.102;2023-03-23T00:11:55;3.72;;;1.30;;
39452;SDS011;25154;-33.684;151.102;2023-03-23T00:17:05;7.47;;;1.70;;
39452;SDS011;25154;-33.684;151.102;2023-03-23T00:22:15;5.45;;;1.73;;
39452;SDS011;25154;-33.684;151.102;2023-03-23T00:27:20;5.05;;;1.85;;
39452;SDS011;25154;-33.684;151.102;2023-03-23T00:32:23;4.05;;;1.65;;
39452;SDS011;25154;-33.684;151.102;2023-03-23T00:37:30;3.70;;;1.70;;
39452;SDS011;25154;-33.684;151.102;2023-03-23T00:42:33;2.88;;;1.63;;
39452;SDS011;25154;-33.684;151.102;2023-03-23T00:47:40;4.00;;;1.90;;
39452;SDS011;25154;-33.684;151.102;2023-03-23T00:52:47;3.70;;;2.08;;
39452;SDS011;25154;-33.684;151.102;2023-03-23T00:57:53;4.05;;;2.00;;
39452;SDS011;25154;-33.684;151.102;2023-03-23T01:02:56;5.85;;;2.10;;
39452;SDS011;25154;-33.684;151.102;2023-03-23T01:07:58;4.38;;;2.28;;
39452;SDS011;25154;-33.684;151.102;2023-03-23T01:13:02;3.95;;;2.25;;
39452;SDS011;25154;-33.684;151.102;2023-03-23T01:18:09;5.05;;;2.17;;
39452;SDS011;25154;-33.684;151.102;2023-03-23T01:23:13;5.30;;;2.30;;
39452;SDS011;25154;-33.684;151.102;2023-03-23T01:28:15;4.80;;;2.20;;
39452;SDS011;25154;-33.684;151.102;2023-03-23T01:33:18;4.60;;;2.28;;
39452;SDS011;25154;-33.684;151.102;2023-03-23T01:38:21;7.28;;;2.15;;
39452;SDS011;25154;-33.684;151.102;2023-03-23T01:43:24;3.55;;;2.00;;
39452;SDS011;25154;-33.684;151.102;2023-03-23T01:48:32;3.72;;;2.05;;
39452;SDS011;25154;-33.684;151.102;2023-03-23T01:53:46;3.80;;;2.10;;
39452;SDS011;25154;-33.684;151.102;2023-03-23T01:58:52;4.82;;;2.00;;
39452;SDS011;25154;-33.684;151.102;2023-03-23T02:03:56;4.38;;;2.00;;
39452;SDS011;25154;-33.684;151.102;2023-03-23T02:08:59;4.47;;;2.20;;
39452;SDS011;25154;-33.684;151.102;2023-03-23T02:14:02;4.70;;;2.20;;
39452;SDS011;25154;-33.684;151.102;2023-03-23T02:35:31;3.60;;;1.70;;
39452;SDS011;25154;-33.684;151.102;2023-03-23T02:40:42;3.88;;;1.77;;
39452;SDS011;25154;-33.684;151.102;2023-03-23T02:45:51;2.85;;;1.67;;
39452;SDS011;25154;-33.684;151.102;2023-03-23T02:50:55;4.88;;;1.70;;
39452;SDS011;25154;-33.684;151.102;2023-03-23T02:56:01;3.00;;;2.13;;
39452;SDS011;25154;-33.684;151.102;2023-03-23T03:12:10;2.33;;;1.40;;
39452;SDS011;25154;-33.684;151.102;2023-03-23T03:17:46;4.45;;;1.20;;
39452;SDS011;25154;-33.684;151.102;2023-03-23T03:23:07;3.67;;;1.38;;
39452;SDS011;25154;-33.684;151.102;2023-03-23T03:28:16;3.63;;;1.70;;
39452;SDS011;25154;-33.684;151.102;2023-03-23T03:33:22;5.03;;;2.17;;
39452;SDS011;25154;-33.684;151.102;2023-03-23T03:38:26;8.60;;;2.20;;
39452;SDS011;25154;-33.684;151.102;2023-03-23T03:43:31;5.03;;;2.25;;
39452;SDS011;25154;-33.684;151.102;2023-03-23T03:48:33;7.00;;;2.95;;
39452;SDS011;25154;-33.684;151.102;2023-03-23T03:53:36;4.25;;;2.40;;
39452;SDS011;25154;-33.684;151.102;2023-03-23T03:58:39;4.30;;;2.40;;
39452;SDS011;25154;-33.684;151.102;2023-03-23T04:03:43;5.45;;;1.98;;
39452;SDS011;25154;-33.684;151.102;2023-03-23T04:08:46;4.63;;;1.73;;
39452;SDS011;25154;-33.684;151.102;2023-03-23T04:13:49;2.92;;;1.80;;
39452;SDS011;25154;-33.684;151.102;2023-03-23T04:18:51;4.78;;;2.00;;
39452;SDS011;25154;-33.684;151.102;2023-03-23T04:23:57;3.85;;;2.03;;
39452;SDS011;25154;-33.684;151.102;2023-03-23T04:29:03;3.55;;;1.30;;
39452;SDS011;25154;-33.684;151.102;2023-03-23T04:34:07;1.67;;;0.88;;
39452;SDS011;25154;-33.684;151.102;2023-03-23T04:39:13;2.75;;;1.15;;
39452;SDS011;25154;-33.684;151.102;2023-03-23T04:44:16;1.75;;;1.10;;
39452;SDS011;25154;-33.684;151.102;2023-03-23T04:49:21;2.53;;;1.27;;
39452;SDS011;25154;-33.684;151.102;2023-03-23T04:54:24;2.60;;;1.50;;
39452;SDS011;25154;-33.684;151.102;2023-03-23T04:59:29;3.87;;;1.90;;
39452;SDS011;25154;-33.684;151.102;2023-03-23T05:04:31;4.53;;;1.60;;
39452;SDS011;25154;-33.684;151.102;2023-03-23T05:09:34;6.07;;;2.05;;
39452;SDS011;25154;-33.684;151.102;2023-03-23T05:14:45;3.35;;;1.45;;
39452;SDS011;25154;-33.684;151.102;2023-03-23T05:19:48;7.10;;;2.20;;
39452;SDS011;25154;-33.684;151.102;2023-03-23T05:24:52;9.40;;;3.20;;
39452;SDS011;25154;-33.684;151.102;2023-03-23T05:29:55;11.73;;;3.35;;
39452;SDS011;25154;-33.684;151.102;2023-03-23T05:34:59;8.40;;;2.90;;
39452;SDS011;25154;-33.684;151.102;2023-03-23T05:40:04;11.77;;;3.10;;
39452;SDS011;25154;-33.684;151.102;2023-03-23T05:45:11;7.15;;;2.88;;
39452;SDS011;25154;-33.684;151.102;2023-03-23T05:50:14;6.88;;;2.75;;
39452;SDS011;25154;-33.684;151.102;2023-03-23T05:55:17;4.75;;;1.60;;
39452;SDS011;25154;-33.684;151.102;2023-03-23T06:00:20;3.88;;;1.00;;
39452;SDS011;25154;-33.684;151.102;2023-03-23T06:05:24;3.28;;;1.17;;
39452;SDS011;25154;-33.684;151.102;2023-03-23T06:10:30;1.40;;;0.80;;
39452;SDS011;25154;-33.684;151.102;2023-03-23T06:15:39;2.15;;;1.83;;
39452;SDS011;25154;-33.684;151.102;2023-03-23T06:20:44;1.17;;;0.70;;
39452;SDS011;25154;-33.684;151.102;2023-03-23T06:25:47;2.72;;;1.98;;
39452;SDS011;25154;-33.684;151.102;2023-03-23T06:30:55;1.73;;;1.27;;
39452;SDS011;25154;-33.684;151.102;2023-03-23T06:36:06;0.88;;;0.60;;
39452;SDS011;25154;-33.684;151.102;2023-03-23T06:41:11;1.77;;;0.70;;
39452;SDS011;25154;-33.684;151.102;2023-03-23T06:46:14;4.35;;;0.98;;
39452;SDS011;25154;-33.684;151.102;2023-03-23T06:51:17;2.65;;;0.80;;
39452;SDS011;25154;-33.684;151.102;2023-03-23T06:56:19;4.53;;;1.02;;
39452;SDS011;25154;-33.684;151.102;2023-03-23T07:01:23;2.88;;;1.17;;
39452;SDS011;25154;-33.684;151.102;2023-03-23T07:06:27;2.28;;;0.90;;
39452;SDS011;25154;-33.684;151.102;2023-03-23T07:11:30;7.78;;;1.42;;
39452;SDS011;25154;-33.684;151.102;2023-03-23T07:16:36;2.65;;;1.10;;
39452;SDS011;25154;-33.684;151.102;2023-03-23T07:21:38;2.33;;;1.30;;
39452;SDS011;25154;-33.684;151.102;2023-03-23T07:26:41;3.17;;;1.00;;
39452;SDS011;25154;-33.684;151.102;2023-03-23T07:31:43;2.30;;;1.27;;
39452;SDS011;25154;-33.684;151.102;2023-03-23T07:36:49;3.40;;;1.13;;
39452;SDS011;25154;-33.684;151.102;2023-03-23T07:41:51;4.97;;;1.70;;
39452;SDS011;25154;-33.684;151.102;2023-03-23T07:46:53;5.93;;;0.95;;
39452;SDS011;25154;-33.684;151.102;2023-03-23T07:51:57;2.90;;;1.17;;
39452;SDS011;25154;-33.684;151.102;2023-03-23T07:57:02;3.38;;;1.20;;
39452;SDS011;25154;-33.684;151.102;2023-03-23T08:02:05;1.73;;;0.90;;
39452;SDS011;25154;-33.684;151.102;2023-03-23T08:07:10;2.33;;;1.00;;
39452;SDS011;25154;-33.684;151.102;2023-03-23T08:12:17;2.80;;;1.20;;
39452;SDS011;25154;-33.684;151.102;2023-03-23T08:17:19;4.43;;;1.00;;
39452;SDS011;25154;-33.684;151.102;2023-03-23T08:22:22;3.67;;;2.17;;
39452;SDS011;25154;-33.684;151.102;2023-03-23T08:27:25;2.67;;;0.95;;
39452;SDS011;25154;-33.684;151.102;2023-03-23T08:32:27;1.58;;;0.93;;
39452;SDS011;25154;-33.684;151.102;2023-03-23T08:37:33;2.50;;;0.93;;
39452;SDS011;25154;-33.684;151.102;2023-03-23T08:42:37;2.42;;;1.00;;
39452;SDS011;25154;-33.684;151.102;2023-03-23T08:47:42;2.13;;;1.07;;
39452;SDS011;25154;-33.684;151.102;2023-03-23T08:52:45;3.83;;;1.10;;
39452;SDS011;25154;-33.684;151.102;2023-03-23T08:57:48;4.45;;;1.10;;
39452;SDS011;25154;-33.684;151.102;2023-03-23T09:02:52;3.25;;;1.25;;
39452;SDS011;25154;-33.684;151.102;2023-03-23T09:07:58;8.00;;;1.55;;
39452;SDS011;25154;-33.684;151.102;2023-03-23T09:13:00;4.40;;;1.85;;
39452;SDS011;25154;-33.684;151.102;2023-03-23T09:18:03;3.10;;;1.60;;
39452;SDS011;25154;-33.684;151.102;2023-03-23T09:23:06;6.00;;;1.98;;
39452;SDS011;25154;-33.684;151.102;2023-03-23T09:28:09;4.97;;;2.30;;
39452;SDS011;25154;-33.684;151.102;2023-03-23T09:33:12;3.47;;;2.30;;
39452;SDS011;25154;-33.684;151.102;2023-03-23T09:38:16;5.65;;;2.75;;
39452;SDS011;25154;-33.684;151.102;2023-03-23T09:59:42;5.15;;;2.40;;
39452;SDS011;25154;-33.684;151.102;2023-03-23T10:04:50;6.10;;;2.22;;
39452;SDS011;25154;-33.684;151.102;2023-03-23T10:09:59;4.95;;;2.17;;
39452;SDS011;25154;-33.684;151.102;2023-03-23T10:20:42;8.05;;;2.38;;
39452;SDS011;25154;-33.684;151.102;2023-03-23T10:25:51;4.50;;;2.10;;
39452;SDS011;25154;-33.684;151.102;2023-03-23T10:31:01;4.78;;;1.92;;
39452;SDS011;25154;-33.684;151.102;2023-03-23T10:36:21;4.25;;;2.03;;
39452;SDS011;25154;-33.684;151.102;2023-03-23T10:41:35;7.40;;;2.10;;
39452;SDS011;25154;-33.684;151.102;2023-03-23T10:57:27;4.95;;;2.40;;
39452;SDS011;25154;-33.684;151.102;2023-03-23T11:02:42;3.78;;;2.00;;
39452;SDS011;25154;-33.684;151.102;2023-03-23T11:07:52;5.50;;;2.22;;
39452;SDS011;25154;-33.684;151.102;2023-03-23T11:12:58;8.13;;;2.40;;
39452;SDS011;25154;-33.684;151.102;2023-03-23T11:18:05;5.82;;;2.40;;
39452;SDS011;25154;-33.684;151.102;2023-03-23T11:23:17;5.65;;;1.90;;
39452;SDS011;25154;-33.684;151.102;2023-03-23T11:28:32;5.35;;;2.05;;
39452;SDS011;25154;-33.684;151.102;2023-03-23T11:33:46;4.70;;;2.40;;
39452;SDS011;25154;-33.684;151.102;2023-03-23T11:38:58;5.65;;;3.17;;
39452;SDS011;25154;-33.684;151.102;2023-03-23T11:44:09;5.53;;;3.10;;
39452;SDS011;25154;-33.684;151.102;2023-03-23T11:49:29;4.47;;;2.55;;
39452;SDS011;25154;-33.684;151.102;2023-03-23T11:54:46;4.13;;;2.45;;
39452;SDS011;25154;-33.684;151.102;2023-03-23T11:59:54;4.85;;;3.13;;
39452;SDS011;25154;-33.684;151.102;2023-03-23T12:21:39;9.13;;;3.88;;
39452;SDS011;25154;-33.684;151.102;2023-03-23T12:42:54;7.45;;;2.88;;
39452;SDS011;25154;-33.684;151.102;2023-03-23T12:48:11;5.47;;;2.90;;
39452;SDS011;25154;-33.684;151.102;2023-03-23T12:58:45;4.35;;;2.75;;
39452;SDS011;25154;-33.684;151.102;2023-03-23T13:04:13;4.78;;;2.40;;
39452;SDS011;25154;-33.684;151.102;2023-03-23T13:09:27;4.82;;;2.60;;
39452;SDS011;25154;-33.684;151.102;2023-03-23T13:14:43;5.63;;;2.72;;
39452;SDS011;25154;-33.684;151.102;2023-03-23T13:25:15;4.05;;;2.70;;
39452;SDS011;25154;-33.684;151.102;2023-03-23T13:30:38;4.45;;;2.80;;
39452;SDS011;25154;-33.684;151.102;2023-03-23T13:35:41;4.95;;;2.40;;
39452;SDS011;25154;-33.684;151.102;2023-03-23T13:40:44;4.75;;;2.53;;
39452;SDS011;25154;-33.684;151.102;2023-03-23T13:45:51;5.03;;;2.53;;
39452;SDS011;25154;-33.684;151.102;2023-03-23T13:51:21;4.22;;;2.70;;
39452;SDS011;25154;-33.684;151.102;2023-03-23T13:56:39;5.18;;;2.60;;
39452;SDS011;25154;-33.684;151.102;2023-03-23T14:02:27;5.50;;;2.95;;
39452;SDS011;25154;-33.684;151.102;2023-03-23T14:13:23;4.72;;;2.90;;
39452;SDS011;25154;-33.684;151.102;2023-03-23T14:18:38;8.52;;;3.25;;
39452;SDS011;25154;-33.684;151.102;2023-03-23T14:23:43;6.95;;;2.78;;
39452;SDS011;25154;-33.684;151.102;2023-03-23T14:28:49;7.05;;;2.50;;
39452;SDS011;25154;-33.684;151.102;2023-03-23T14:33:54;6.82;;;2.92;;
39452;SDS011;25154;-33.684;151.102;2023-03-23T14:44:30;5.40;;;2.75;;
39452;SDS011;25154;-33.684;151.102;2023-03-23T14:49:36;4.28;;;3.08;;
39452;SDS011;25154;-33.684;151.102;2023-03-23T14:54:46;5.82;;;3.78;;
39452;SDS011;25154;-33.684;151.102;2023-03-23T14:59:49;6.50;;;3.53;;
39452;SDS011;25154;-33.684;151.102;2023-03-23T15:04:53;5.20;;;3.13;;
39452;SDS011;25154;-33.684;151.102;2023-03-23T15:09:59;7.15;;;3.42;;
39452;SDS011;25154;-33.684;151.102;2023-03-23T15:15:04;7.32;;;3.65;;
39452;SDS011;25154;-33.684;151.102;2023-03-23T15:25:32;6.53;;;3.78;;
39452;SDS011;25154;-33.684;151.102;2023-03-23T15:30:48;6.93;;;3.80;;
39452;SDS011;25154;-33.684;151.102;2023-03-23T15:35:55;6.47;;;3.90;;
39452;SDS011;25154;-33.684;151.102;2023-03-23T15:41:00;8.25;;;4.35;;
39452;SDS011;25154;-33.684;151.102;2023-03-23T15:46:18;6.20;;;4.25;;
39452;SDS011;25154;-33.684;151.102;2023-03-23T15:51:27;10.43;;;5.68;;
39452;SDS011;25154;-33.684;151.102;2023-03-23T15:56:36;46.05;;;7.72;;
39452;SDS011;25154;-33.684;151.102;2023-03-23T16:01:40;14.02;;;6.75;;
39452;SDS011;25154;-33.684;151.102;2023-03-23T16:06:44;17.08;;;8.98;;
39452;SDS011;25154;-33.684;151.102;2023-03-23T16:11:53;15.75;;;9.27;;
39452;SDS011;25154;-33.684;151.102;2023-03-23T16:16:56;15.63;;;8.93;;
39452;SDS011;25154;-33.684;151.102;2023-03-23T16:21:58;15.02;;;8.48;;
39452;SDS011;25154;-33.684;151.102;2023-03-23T16:27:01;14.23;;;7.65;;
39452;SDS011;25154;-33.684;151.102;2023-03-23T16:32:05;14.02;;;7.35;;
39452;SDS011;25154;-33.684;151.102;2023-03-23T16:37:08;15.88;;;7.07;;
39452;SDS011;25154;-33.684;151.102;2023-03-23T16:42:14;10.05;;;6.22;;
39452;SDS011;25154;-33.684;151.102;2023-03-23T16:47:17;13.32;;;5.47;;
39452;SDS011;25154;-33.684;151.102;2023-03-23T16:52:25;11.60;;;5.28;;
39452;SDS011;25154;-33.684;151.102;2023-03-23T16:57:31;8.55;;;4.47;;
39452;SDS011;25154;-33.684;151.102;2023-03-23T17:02:37;10.07;;;3.93;;
39452;SDS011;25154;-33.684;151.102;2023-03-23T17:07:42;7.38;;;3.17;;
39452;SDS011;25154;-33.684;151.102;2023-03-23T17:12:45;4.88;;;2.72;;
39452;SDS011;25154;-33.684;151.102;2023-03-23T17:17:51;5.35;;;2.80;;
39452;SDS011;25154;-33.684;151.102;2023-03-23T17:22:54;5.00;;;2.50;;
39452;SDS011;25154;-33.684;151.102;2023-03-23T17:27:59;5.30;;;2.70;;
39452;SDS011;25154;-33.684;151.102;2023-03-23T17:33:02;7.43;;;2.45;;
39452;SDS011;25154;-33.684;151.102;2023-03-23T17:38:04;4.78;;;2.35;;
39452;SDS011;25154;-33.684;151.102;2023-03-23T17:43:07;3.60;;;2.20;;
39452;SDS011;25154;-33.684;151.102;2023-03-23T17:48:10;4.32;;;2.42;;
39452;SDS011;25154;-33.684;151.102;2023-03-23T17:53:13;3.70;;;2.45;;
39452;SDS011;25154;-33.684;151.102;2023-03-23T17:58:18;4.05;;;1.90;;
39452;SDS011;25154;-33.684;151.102;2023-03-23T18:03:21;5.43;;;2.15;;
39452;SDS011;25154;-33.684;151.102;2023-03-23T18:08:24;4.22;;;2.47;;
39452;SDS011;25154;-33.684;151.102;2023-03-23T18:13:28;4.95;;;2.17;;
39452;SDS011;25154;-33.684;151.102;2023-03-23T18:18:34;4.27;;;2.13;;
39452;SDS011;25154;-33.684;151.102;2023-03-23T18:23:37;5.53;;;2.20;;
39452;SDS011;25154;-33.684;151.102;2023-03-23T18:28:40;4.43;;;2.35;;
39452;SDS011;25154;-33.684;151.102;2023-03-23T18:33:47;6.13;;;2.50;;
39452;SDS011;25154;-33.684;151.102;2023-03-23T18:38:53;4.15;;;2.65;;
39452;SDS011;25154;-33.684;151.102;2023-03-23T18:43:57;4.63;;;2.20;;
39452;SDS011;25154;-33.684;151.102;2023-03-23T18:49:00;4.20;;;2.50;;
39452;SDS011;25154;-33.684;151.102;2023-03-23T18:54:02;6.65;;;2.72;;
39452;SDS011;25154;-33.684;151.102;2023-03-23T18:59:05;4.57;;;2.63;;
39452;SDS011;25154;-33.684;151.102;2023-03-23T19:04:08;5.13;;;2.20;;
39452;SDS011;25154;-33.684;151.102;2023-03-23T19:09:13;6.30;;;2.50;;
39452;SDS011;25154;-33.684;151.102;2023-03-23T19:14:16;5.70;;;2.67;;
39452;SDS011;25154;-33.684;151.102;2023-03-23T19:19:19;6.10;;;2.30;;
39452;SDS011;25154;-33.684;151.102;2023-03-23T19:24:22;4.50;;;2.38;;
39452;SDS011;25154;-33.684;151.102;2023-03-23T19:29:26;4.85;;;2.05;;
39452;SDS011;25154;-33.684;151.102;2023-03-23T19:34:29;4.35;;;2.30;;
39452;SDS011;25154;-33.684;151.102;2023-03-23T19:39:32;3.22;;;2.00;;
39452;SDS011;25154;-33.684;151.102;2023-03-23T19:44:35;6.97;;;2.13;;
39452;SDS011;25154;-33.684;151.102;2023-03-23T19:49:38;4.10;;;2.17;;
39452;SDS011;25154;-33.684;151.102;2023-03-23T19:54:41;4.22;;;2.13;;
39452;SDS011;25154;-33.684;151.102;2023-03-23T19:59:44;4.88;;;1.98;;
39452;SDS011;25154;-33.684;151.102;2023-03-23T20:04:47;8.68;;;1.77;;
39452;SDS011;25154;-33.684;151.102;2023-03-23T20:09:53;3.92;;;2.22;;
39452;SDS011;25154;-33.684;151.102;2023-03-23T20:14:56;3.40;;;2.13;;
39452;SDS011;25154;-33.684;151.102;2023-03-23T20:19:59;4.25;;;2.10;;
39452;SDS011;25154;-33.684;151.102;2023-03-23T20:25:08;4.53;;;2.10;;
39452;SDS011;25154;-33.684;151.102;2023-03-23T20:30:11;5.03;;;2.20;;
39452;SDS011;25154;-33.684;151.102;2023-03-23T20:35:17;4.25;;;2.05;;
39452;SDS011;25154;-33.684;151.102;2023-03-23T20:40:22;4.18;;;1.90;;
39452;SDS011;25154;-33.684;151.102;2023-03-23T20:45:24;3.60;;;2.08;;
39452;SDS011;25154;-33.684;151.102;2023-03-23T20:50:27;4.25;;;1.88;;
39452;SDS011;25154;-33.684;151.102;2023-03-23T20:55:30;4.47;;;1.90;;
39452;SDS011;25154;-33.684;151.102;2023-03-23T21:00:42;4.28;;;2.20;;
39452;SDS011;25154;-33.684;151.102;2023-03-23T21:05:46;5.18;;;1.80;;
39452;SDS011;25154;-33.684;151.102;2023-03-23T21:10:49;3.13;;;1.70;;
39452;SDS011;25154;-33.684;151.102;2023-03-23T21:15:52;4.88;;;1.73;;
39452;SDS011;25154;-33.684;151.102;2023-03-23T21:20:55;5.13;;;1.70;;
39452;SDS011;25154;-33.684;151.102;2023-03-23T21:26:03;2.92;;;1.70;;
39452;SDS011;25154;-33.684;151.102;2023-03-23T21:31:09;3.78;;;1.60;;
39452;SDS011;25154;-33.684;151.102;2023-03-23T21:36:13;7.35;;;1.50;;
39452;SDS011;25154;-33.684;151.102;2023-03-23T21:41:16;5.05;;;1.73;;
39452;SDS011;25154;-33.684;151.102;2023-03-23T21:46:19;4.25;;;1.50;;
39452;SDS011;25154;-33.684;151.102;2023-03-23T21:51:23;3.10;;;1.40;;
39452;SDS011;25154;-33.684;151.102;2023-03-23T21:56:28;3.90;;;1.50;;
39452;SDS011;25154;-33.684;151.102;2023-03-23T22:01:34;2.60;;;1.40;;
39452;SDS011;25154;-33.684;151.102;2023-03-23T22:06:38;2.58;;;1.38;;
39452;SDS011;25154;-33.684;151.102;2023-03-23T22:11:42;4.22;;;1.63;;
39452;SDS011;25154;-33.684;151.102;2023-03-23T22:16:45;2.92;;;1.30;;
39452;SDS011;25154;-33.684;151.102;2023-03-23T22:21:47;3.17;;;1.38;;
39452;SDS011;25154;-33.684;151.102;2023-03-23T22:26:50;3.05;;;1.30;;
39452;SDS011;25154;-33.684;151.102;2023-03-23T22:31:53;2.42;;;1.20;;
39452;SDS011;25154;-33.684;151.102;2023-03-23T22:36:56;6.70;;;1.70;;
39452;SDS011;25154;-33.684;151.102;2023-03-23T22:41:59;4.30;;;1.73;;
39452;SDS011;25154;-33.684;151.102;2023-03-23T22:47:02;4.00;;;1.55;;
39452;SDS011;25154;-33.684;151.102;2023-03-23T22:52:04;4.85;;;1.45;;
39452;SDS011;25154;-33.684;151.102;2023-03-23T22:57:11;4.78;;;1.50;;
39452;SDS011;25154;-33.684;151.102;2023-03-23T23:02:14;5.37;;;1.40;;
39452;SDS011;25154;-33.684;151.102;2023-03-23T23:07:17;4.25;;;1.63;;
39452;SDS011;25154;-33.684;151.102;2023-03-23T23:12:21;6.07;;;2.33;;
39452;SDS011;25154;-33.684;151.102;2023-03-23T23:17:24;3.70;;;1.90;;
39452;SDS011;25154;-33.684;151.102;2023-03-23T23:22:27;3.63;;;2.58;;
39452;SDS011;25154;-33.684;151.102;2023-03-23T23:27:29;6.60;;;1.90;;
39452;SDS011;25154;-33.684;151.102;2023-03-23T23:32:32;3.60;;;1.55;;
39452;SDS011;25154;-33.684;151.102;2023-03-23T23:37:36;4.40;;;1.80;;
39452;SDS011;25154;-33.684;151.102;2023-03-23T23:42:39;4.82;;;2.10;;
39452;SDS011;25154;-33.684;151.102;2023-03-23T23:47:43;5.57;;;1.77;;
39452;SDS011;25154;-33.684;151.102;2023-03-23T23:52:48;5.97;;;1.75;;
39452;SDS011;25154;-33.684;151.102;2023-03-23T23:57:52;5.45;;;2.20;;
